createdAt,value
2019-03-18T00:01:47.994Z,0.80
2019-03-18T00:04:17.915Z,0.90
2019-03-18T00:06:47.361Z,0.70
2019-03-18T00:09:16.775Z,0.72
2019-03-18T00:11:46.173Z,0.80
2019-03-18T00:14:15.227Z,0.90
2019-03-18T00:16:44.568Z,0.78
2019-03-18T00:19:14.063Z,0.80
2019-03-18T00:21:43.772Z,1.00
2019-03-18T00:24:13.166Z,1.00
2019-03-18T00:26:42.886Z,0.98
2019-03-18T00:29:12.288Z,0.80
2019-03-18T00:31:41.336Z,0.90
2019-03-18T00:34:10.989Z,0.90
2019-03-18T00:36:40.397Z,0.90
2019-03-18T00:39:10.102Z,1.00
2019-03-18T00:41:39.431Z,1.10
2019-03-18T00:44:08.796Z,0.90
2019-03-18T00:46:38.512Z,0.90
2019-03-18T00:49:07.832Z,0.90
2019-03-18T00:51:37.208Z,0.90
2019-03-18T00:54:06.510Z,1.00
2019-03-18T00:56:35.816Z,0.88
2019-03-18T00:59:05.216Z,0.70
2019-03-18T01:01:34.637Z,1.10
2019-03-18T01:04:04.432Z,0.90
2019-03-18T01:06:34.142Z,1.00
2019-03-18T01:09:03.544Z,1.17
2019-03-18T01:11:32.579Z,0.90
2019-03-18T01:14:01.628Z,0.93
2019-03-18T01:16:30.936Z,0.80
2019-03-18T01:19:00.356Z,0.87
2019-03-18T01:21:29.654Z,0.80
2019-03-18T01:23:59.954Z,0.82
2019-03-18T01:26:28.985Z,0.90
2019-03-18T01:28:58.369Z,0.85
2019-03-18T01:31:28.360Z,0.88
2019-03-18T01:33:57.660Z,0.95
2019-03-18T01:36:27.085Z,0.80
2019-03-18T01:38:56.769Z,0.90
2019-03-18T01:41:26.076Z,0.90
2019-03-18T01:43:55.476Z,0.80
2019-03-18T01:46:25.085Z,0.80
2019-03-18T01:48:54.788Z,0.80
2019-03-18T01:51:24.501Z,0.70
2019-03-18T01:53:53.848Z,0.80
2019-03-18T01:56:23.805Z,0.80
2019-03-18T01:58:53.680Z,0.80
2019-03-18T02:01:23.053Z,0.75
2019-03-18T02:03:52.104Z,0.90
2019-03-18T02:06:21.488Z,0.90
2019-03-18T02:08:50.867Z,0.80
2019-03-18T02:11:19.913Z,0.70
2019-03-18T02:13:48.959Z,0.70
2019-03-18T02:16:18.526Z,0.90
2019-03-18T02:18:48.272Z,0.90
2019-03-18T02:21:17.649Z,0.90
2019-03-18T02:23:47.047Z,0.90
2019-03-18T02:26:16.455Z,0.98
2019-03-18T02:28:47.328Z,0.80
2019-03-18T02:31:17.193Z,0.80
2019-03-18T02:33:47.175Z,0.70
2019-03-18T02:36:16.517Z,1.00
2019-03-18T02:38:45.817Z,0.80
2019-03-18T02:41:14.769Z,0.80
2019-03-18T02:43:43.633Z,0.80
2019-03-18T02:46:12.839Z,0.75
2019-03-18T02:48:42.014Z,0.80
2019-03-18T02:51:11.618Z,0.90
2019-03-18T02:53:40.886Z,0.82
2019-03-18T02:56:09.838Z,1.17
2019-03-18T02:58:39.278Z,1.30
2019-03-18T03:01:08.511Z,1.05
2019-03-18T03:03:37.501Z,1.10
2019-03-18T03:06:06.568Z,1.10
2019-03-18T03:08:36.467Z,1.20
2019-03-18T03:11:06.006Z,1.10
2019-03-18T03:13:35.207Z,1.30
2019-03-18T03:16:04.612Z,1.30
2019-03-18T03:18:33.619Z,1.70
2019-03-18T03:21:02.512Z,1.60
2019-03-18T03:23:31.991Z,2.00
2019-03-18T03:26:01.891Z,2.02
2019-03-18T03:28:31.192Z,2.40
2019-03-18T03:31:00.383Z,2.30
2019-03-18T03:33:29.878Z,2.20
2019-03-18T03:35:58.820Z,2.30
2019-03-18T03:38:28.071Z,2.10
2019-03-18T03:40:57.373Z,2.60
2019-03-18T03:43:27.091Z,2.77
2019-03-18T03:45:56.328Z,3.00
2019-03-18T03:48:25.601Z,3.10
2019-03-18T03:50:54.870Z,2.90
2019-03-18T03:53:24.183Z,3.07
2019-03-18T03:55:53.115Z,3.27
2019-03-18T03:58:22.683Z,3.00
2019-03-18T04:00:52.069Z,3.20
2019-03-18T04:03:37.238Z,3.22
2019-03-18T04:05:52.435Z,3.40
2019-03-18T04:08:21.847Z,3.60
2019-03-18T04:10:51.215Z,3.58
2019-03-18T04:13:20.099Z,3.08
2019-03-18T04:15:49.077Z,3.40
2019-03-18T04:18:18.654Z,3.35
2019-03-18T04:20:47.699Z,3.37
2019-03-18T04:23:17.295Z,3.60
2019-03-18T04:25:46.205Z,3.97
2019-03-18T04:28:16.096Z,3.40
2019-03-18T04:30:45.407Z,3.90
2019-03-18T04:33:14.647Z,3.50
2019-03-18T04:35:44.416Z,3.33
2019-03-18T04:38:13.916Z,3.70
2019-03-18T04:40:42.863Z,3.40
2019-03-18T04:43:12.609Z,3.10
2019-03-18T04:45:42.202Z,3.08
2019-03-18T04:48:12.239Z,2.80
2019-03-18T04:50:41.512Z,2.90
2019-03-18T04:53:10.751Z,2.90
2019-03-18T04:55:39.936Z,3.10
2019-03-18T04:58:09.240Z,2.70
2019-03-18T05:00:38.179Z,2.60
2019-03-18T05:03:07.730Z,2.60
2019-03-18T05:05:36.884Z,2.80
2019-03-18T05:08:05.827Z,2.83
2019-03-18T05:10:35.823Z,3.42
2019-03-18T05:13:05.080Z,4.27
2019-03-18T05:15:34.288Z,5.63
2019-03-18T05:18:03.971Z,2.40
2019-03-18T05:20:33.548Z,2.58
2019-03-18T05:23:03.251Z,2.33
2019-03-18T05:25:33.120Z,4.35
2019-03-18T05:28:02.136Z,3.77
2019-03-18T05:30:31.505Z,2.80
2019-03-18T05:33:00.819Z,3.20
2019-03-18T05:35:29.672Z,4.00
2019-03-18T05:37:59.220Z,2.77
2019-03-18T05:40:28.487Z,3.67
2019-03-18T05:42:58.476Z,3.27
2019-03-18T05:45:27.897Z,3.87
2019-03-18T05:47:57.391Z,3.10
2019-03-18T05:50:26.680Z,2.40
2019-03-18T05:52:55.877Z,2.67
2019-03-18T05:55:25.170Z,4.20
2019-03-18T05:57:54.051Z,4.20
2019-03-18T06:00:23.376Z,9.35
2019-03-18T06:02:52.919Z,9.90
2019-03-18T06:05:22.099Z,11.50
2019-03-18T06:07:51.667Z,8.70
2019-03-18T06:10:20.700Z,4.45
2019-03-18T06:12:49.559Z,3.15
2019-03-18T06:15:18.688Z,2.50
2019-03-18T06:17:52.766Z,2.70
2019-03-18T06:20:19.088Z,2.20
2019-03-18T06:22:48.543Z,2.40
2019-03-18T06:25:17.816Z,2.10
2019-03-18T06:27:47.500Z,2.90
2019-03-18T06:30:16.901Z,2.83
2019-03-18T06:32:45.863Z,2.60
2019-03-18T06:35:15.105Z,2.58
2019-03-18T06:37:44.423Z,2.60
2019-03-18T06:40:13.484Z,2.60
2019-03-18T06:42:42.686Z,2.90
2019-03-18T06:45:11.746Z,2.43
2019-03-18T06:47:40.807Z,2.60
2019-03-18T06:50:10.172Z,2.67
2019-03-18T06:52:39.675Z,2.67
2019-03-18T06:55:09.016Z,2.42
2019-03-18T06:57:38.335Z,2.42
2019-03-18T07:00:08.691Z,2.30
2019-03-18T07:02:38.156Z,2.30
2019-03-18T07:05:07.704Z,1.90
2019-03-18T07:07:36.916Z,1.98
2019-03-18T07:10:06.559Z,2.05
2019-03-18T07:12:35.439Z,2.12
2019-03-18T07:15:05.113Z,2.10
2019-03-18T07:17:34.140Z,2.30
2019-03-18T07:20:03.099Z,2.30
2019-03-18T07:22:32.600Z,2.20
2019-03-18T07:25:01.804Z,2.10
2019-03-18T07:27:31.404Z,2.10
2019-03-18T07:30:00.639Z,2.50
2019-03-18T07:32:30.208Z,2.20
2019-03-18T07:34:59.077Z,2.22
2019-03-18T07:37:28.261Z,2.80
2019-03-18T07:39:57.371Z,2.58
2019-03-18T07:42:26.537Z,2.80
2019-03-18T07:44:56.392Z,4.65
2019-03-18T07:47:25.660Z,7.13
2019-03-18T07:49:54.901Z,6.77
2019-03-18T07:52:24.155Z,2.83
2019-03-18T07:54:53.143Z,2.50
2019-03-18T07:57:22.288Z,2.60
2019-03-18T07:59:51.484Z,2.70
2019-03-18T08:02:20.839Z,2.60
2019-03-18T08:04:49.779Z,2.02
2019-03-18T08:07:19.375Z,2.92
2019-03-18T08:09:48.884Z,2.85
2019-03-18T08:12:18.187Z,2.77
2019-03-18T08:14:47.368Z,2.40
2019-03-18T08:17:16.588Z,2.40
2019-03-18T08:19:45.876Z,2.30
2019-03-18T08:22:15.119Z,2.95
2019-03-18T08:24:44.360Z,2.40
2019-03-18T08:27:14.069Z,3.35
2019-03-18T08:29:43.715Z,2.40
2019-03-18T08:32:13.296Z,3.58
2019-03-18T08:34:42.904Z,2.87
2019-03-18T08:37:11.851Z,2.30
2019-03-18T08:39:41.014Z,2.70
2019-03-18T08:42:09.924Z,2.70
2019-03-18T08:44:40.532Z,2.30
2019-03-18T08:47:10.216Z,2.20
2019-03-18T08:49:39.103Z,1.70
2019-03-18T08:52:08.320Z,1.82
2019-03-18T08:54:37.513Z,2.67
2019-03-18T08:57:06.816Z,1.40
2019-03-18T08:59:35.699Z,2.00
2019-03-18T09:02:04.991Z,1.70
2019-03-18T09:04:34.252Z,1.00
2019-03-18T09:07:03.388Z,1.40
2019-03-18T09:09:32.699Z,1.35
2019-03-18T09:12:01.559Z,1.80
2019-03-18T09:14:30.777Z,1.52
2019-03-18T09:17:00.571Z,1.80
2019-03-18T09:19:29.467Z,2.42
2019-03-18T09:21:58.476Z,1.70
2019-03-18T09:24:27.664Z,1.87
2019-03-18T09:27:02.231Z,1.52
2019-03-18T09:29:27.618Z,1.70
2019-03-18T09:31:56.650Z,1.50
2019-03-18T09:34:26.392Z,1.10
2019-03-18T09:36:55.904Z,1.20
2019-03-18T09:39:25.459Z,1.00
2019-03-18T09:41:54.478Z,1.30
2019-03-18T09:44:23.350Z,1.10
2019-03-18T09:46:52.650Z,0.80
2019-03-18T09:49:22.315Z,1.10
2019-03-18T09:51:51.699Z,0.90
2019-03-18T09:54:40.364Z,1.10
2019-03-18T09:57:09.665Z,1.27
2019-03-18T09:59:38.864Z,1.00
2019-03-18T10:02:07.803Z,0.95
2019-03-18T10:04:37.448Z,1.00
2019-03-18T10:07:06.406Z,0.80
2019-03-18T10:09:35.375Z,0.82
2019-03-18T10:12:04.736Z,1.00
2019-03-18T10:14:33.938Z,0.90
2019-03-18T10:17:09.433Z,0.90
2019-03-18T10:19:34.255Z,0.88
2019-03-18T10:22:03.580Z,1.00
2019-03-18T10:24:32.873Z,1.02
2019-03-18T10:27:02.096Z,1.10
2019-03-18T10:29:31.880Z,0.80
2019-03-18T10:32:00.916Z,1.00
2019-03-18T10:34:29.815Z,0.90
2019-03-18T10:36:58.715Z,0.80
2019-03-18T10:39:27.908Z,1.10
2019-03-18T10:41:57.461Z,1.00
2019-03-18T10:44:26.758Z,1.20
2019-03-18T10:46:56.049Z,1.10
2019-03-18T10:49:24.988Z,1.15
2019-03-18T10:51:54.558Z,1.05
2019-03-18T10:54:30.915Z,1.10
2019-03-18T10:56:54.115Z,0.90
2019-03-18T10:59:23.042Z,1.00
2019-03-18T11:01:52.225Z,0.90
2019-03-18T11:04:21.502Z,0.87
2019-03-18T11:06:51.137Z,1.20
2019-03-18T11:09:20.369Z,1.20
2019-03-18T11:11:49.319Z,1.20
2019-03-18T11:14:18.492Z,1.72
2019-03-18T11:16:47.752Z,1.05
2019-03-18T11:19:17.294Z,1.20
2019-03-18T11:21:47.388Z,0.95
2019-03-18T11:24:16.674Z,1.20
2019-03-18T11:26:46.280Z,1.22
2019-03-18T11:29:15.244Z,1.40
2019-03-18T11:31:44.880Z,1.65
2019-03-18T11:34:14.327Z,1.10
2019-03-18T11:36:43.209Z,1.30
2019-03-18T11:39:12.489Z,1.00
2019-03-18T11:41:42.075Z,1.17
2019-03-18T11:44:11.080Z,1.20
2019-03-18T11:46:41.083Z,1.40
2019-03-18T11:49:10.305Z,1.10
2019-03-18T11:51:40.003Z,1.00
2019-03-18T11:54:08.887Z,0.90
2019-03-18T11:56:37.888Z,1.00
2019-03-18T11:59:07.078Z,1.17
2019-03-18T12:01:36.385Z,1.10
2019-03-18T12:04:05.979Z,1.20
2019-03-18T12:06:34.928Z,1.10
2019-03-18T12:09:05.757Z,1.65
2019-03-18T12:11:34.908Z,1.40
2019-03-18T12:14:04.186Z,1.40
2019-03-18T12:16:33.395Z,1.10
2019-03-18T12:19:02.653Z,1.83
2019-03-18T12:21:31.851Z,1.40
2019-03-18T12:24:00.743Z,1.50
2019-03-18T12:26:30.355Z,0.90
2019-03-18T12:28:59.336Z,1.00
2019-03-18T12:31:28.664Z,1.00
2019-03-18T12:33:57.652Z,1.00
2019-03-18T12:36:26.631Z,1.00
2019-03-18T12:38:55.575Z,1.00
2019-03-18T12:41:24.856Z,0.90
2019-03-18T12:43:54.063Z,1.10
2019-03-18T12:46:23.568Z,1.10
2019-03-18T12:48:52.438Z,1.30
2019-03-18T12:51:21.658Z,1.10
2019-03-18T12:53:50.836Z,1.90
2019-03-18T12:56:20.079Z,2.23
2019-03-18T12:58:49.331Z,1.00
2019-03-18T13:01:18.256Z,1.00
2019-03-18T13:03:47.199Z,1.20
2019-03-18T13:06:16.422Z,1.00
2019-03-18T13:08:45.676Z,1.00
2019-03-18T13:11:15.146Z,1.10
2019-03-18T13:13:44.020Z,0.98
2019-03-18T13:16:13.312Z,1.47
2019-03-18T13:18:42.507Z,1.00
2019-03-18T13:21:11.447Z,1.10
2019-03-18T13:23:41.064Z,1.00
2019-03-18T13:26:10.057Z,1.00
2019-03-18T13:28:39.381Z,1.20
2019-03-18T13:31:08.423Z,1.40
2019-03-18T13:33:37.379Z,2.40
2019-03-18T13:36:06.786Z,1.55
2019-03-18T13:38:35.851Z,1.40
2019-03-18T13:41:04.707Z,1.20
2019-03-18T13:43:33.595Z,1.10
2019-03-18T13:46:02.855Z,1.10
2019-03-18T13:48:31.831Z,1.20
2019-03-18T13:51:00.767Z,1.00
2019-03-18T13:53:30.339Z,1.02
2019-03-18T13:55:59.912Z,1.32
2019-03-18T13:58:29.109Z,0.80
2019-03-18T14:00:58.735Z,1.00
2019-03-18T14:03:27.796Z,1.00
2019-03-18T14:05:57.120Z,1.00
2019-03-18T14:08:26.759Z,0.70
2019-03-18T14:10:56.052Z,1.52
2019-03-18T14:13:25.175Z,1.60
2019-03-18T14:15:54.556Z,1.10
2019-03-18T14:18:23.442Z,2.57
2019-03-18T14:20:52.839Z,1.60
2019-03-18T14:23:21.936Z,0.90
2019-03-18T14:25:50.951Z,0.70
2019-03-18T14:28:20.280Z,0.70
2019-03-18T14:30:49.910Z,0.80
2019-03-18T14:33:19.141Z,1.00
2019-03-18T14:35:48.440Z,0.70
2019-03-18T14:38:17.595Z,0.80
2019-03-18T14:40:47.247Z,0.80
2019-03-18T14:43:16.837Z,0.60
2019-03-18T14:45:45.700Z,0.70
2019-03-18T14:48:15.143Z,0.60
2019-03-18T14:50:44.433Z,0.70
2019-03-18T14:53:13.752Z,0.80
2019-03-18T14:55:43.248Z,0.80
2019-03-18T14:58:12.232Z,0.70
2019-03-18T15:00:41.176Z,0.70
2019-03-18T15:03:10.552Z,0.80
2019-03-18T15:05:40.240Z,0.80
2019-03-18T15:08:09.542Z,0.80
2019-03-18T15:10:39.146Z,1.03
2019-03-18T15:13:08.485Z,0.80
2019-03-18T15:15:37.683Z,0.70
2019-03-18T15:18:06.939Z,0.72
2019-03-18T15:20:36.140Z,0.70
2019-03-18T15:23:05.439Z,0.70
2019-03-18T15:25:34.744Z,0.62
2019-03-18T15:28:04.050Z,0.80
2019-03-18T15:30:33.076Z,1.25
2019-03-18T15:33:02.441Z,0.80
2019-03-18T15:35:32.350Z,1.02
2019-03-18T15:38:01.947Z,0.90
2019-03-18T15:40:31.307Z,0.80
2019-03-18T15:43:00.432Z,0.80
2019-03-18T15:45:29.656Z,0.80
2019-03-18T15:47:59.152Z,0.80
2019-03-18T15:50:28.864Z,1.00
2019-03-18T15:52:58.049Z,0.90
2019-03-18T15:55:27.206Z,1.10
2019-03-18T15:57:56.349Z,0.90
2019-03-18T16:00:25.657Z,1.00
2019-03-18T16:02:54.987Z,0.80
2019-03-18T16:05:24.199Z,1.00
2019-03-18T16:07:53.215Z,1.00
2019-03-18T16:10:22.867Z,1.30
2019-03-18T16:12:52.212Z,1.00
2019-03-18T16:15:21.087Z,0.90
2019-03-18T16:17:50.125Z,1.30
2019-03-18T16:20:19.144Z,1.50
2019-03-18T16:22:48.360Z,1.30
2019-03-18T16:25:17.311Z,1.20
2019-03-18T16:27:46.323Z,0.90
2019-03-18T16:30:15.742Z,0.90
2019-03-18T16:32:44.744Z,0.90
2019-03-18T16:35:15.966Z,0.90
2019-03-18T16:37:44.781Z,1.00
2019-03-18T16:40:14.190Z,1.00
2019-03-18T16:42:43.224Z,1.00
2019-03-18T16:45:13.456Z,1.00
2019-03-18T16:47:42.405Z,1.17
2019-03-18T16:50:13.454Z,0.88
2019-03-18T16:52:42.708Z,0.80
2019-03-18T16:55:11.843Z,1.30
2019-03-18T16:57:40.792Z,1.10
2019-03-18T17:00:12.832Z,1.30
2019-03-18T17:02:42.131Z,1.40
2019-03-18T17:05:11.433Z,1.40
2019-03-18T17:07:40.765Z,1.40
2019-03-18T17:10:10.318Z,1.35
2019-03-18T17:12:39.236Z,1.40
2019-03-18T17:15:08.931Z,2.30
2019-03-18T17:17:38.256Z,4.30
2019-03-18T17:20:08.455Z,2.70
2019-03-18T17:22:48.070Z,1.60
2019-03-18T17:25:11.192Z,1.87
2019-03-18T17:27:40.564Z,1.80
2019-03-18T17:30:13.188Z,3.40
2019-03-18T17:32:42.328Z,2.47
2019-03-18T17:35:11.355Z,1.70
2019-03-18T17:37:40.644Z,1.60
2019-03-18T17:40:10.315Z,1.87
2019-03-18T17:42:39.555Z,1.32
2019-03-18T17:45:09.389Z,1.98
2019-03-18T17:47:38.318Z,5.42
2019-03-18T17:50:08.833Z,3.90
2019-03-18T17:52:38.043Z,3.25
2019-03-18T17:55:07.460Z,3.65
2019-03-18T17:57:36.656Z,13.35
2019-03-18T18:00:07.140Z,15.28
2019-03-18T18:02:36.792Z,14.58
2019-03-18T18:05:06.052Z,16.93
2019-03-18T18:07:35.287Z,17.37
2019-03-18T18:10:04.255Z,5.12
2019-03-18T18:12:33.192Z,4.83
2019-03-18T18:15:02.473Z,2.50
2019-03-18T18:17:31.624Z,7.70
2019-03-18T18:20:01.214Z,5.00
2019-03-18T18:22:30.543Z,4.17
2019-03-18T18:25:00.010Z,3.60
2019-03-18T18:27:29.228Z,2.20
2019-03-18T18:29:58.411Z,2.33
2019-03-18T18:32:28.179Z,1.77
2019-03-18T18:34:57.684Z,1.90
2019-03-18T18:37:26.641Z,2.40
2019-03-18T18:39:56.129Z,1.70
2019-03-18T18:42:25.704Z,1.93
2019-03-18T18:44:55.254Z,1.70
2019-03-18T18:47:24.476Z,2.12
2019-03-18T18:49:53.784Z,1.87
2019-03-18T18:52:23.863Z,3.70
2019-03-18T18:54:52.840Z,4.67
2019-03-18T18:57:22.192Z,2.77
2019-03-18T18:59:51.913Z,3.45
2019-03-18T19:02:21.415Z,3.70
2019-03-18T19:04:53.283Z,3.67
2019-03-18T19:07:22.210Z,4.67
2019-03-18T19:09:51.367Z,5.70
2019-03-18T19:12:20.664Z,4.58
2019-03-18T19:14:49.973Z,3.65
2019-03-18T19:17:18.915Z,4.50
2019-03-18T19:19:48.192Z,4.33
2019-03-18T19:22:17.348Z,4.05
2019-03-18T19:24:46.564Z,2.60
2019-03-18T19:27:16.064Z,2.00
2019-03-18T19:29:45.297Z,3.22
2019-03-18T19:32:14.275Z,2.77
2019-03-18T19:34:43.109Z,5.35
2019-03-18T19:37:11.969Z,6.05
2019-03-18T19:39:41.215Z,3.77
2019-03-18T19:42:10.515Z,3.30
2019-03-18T19:44:39.345Z,3.30
2019-03-18T19:47:08.951Z,3.10
2019-03-18T19:49:38.040Z,3.10
2019-03-18T19:52:07.269Z,5.08
2019-03-18T19:54:37.396Z,5.55
2019-03-18T19:57:06.621Z,3.98
2019-03-18T19:59:36.076Z,3.85
2019-03-18T20:02:05.103Z,4.85
2019-03-18T20:04:33.980Z,4.45
2019-03-18T20:07:03.101Z,3.70
2019-03-18T20:09:32.450Z,5.27
2019-03-18T20:12:01.700Z,10.03
2019-03-18T20:14:32.730Z,8.30
2019-03-18T20:17:01.847Z,10.23
2019-03-18T20:19:30.736Z,11.00
2019-03-18T20:21:59.704Z,8.60
2019-03-18T20:24:28.591Z,7.15
2019-03-18T20:26:57.843Z,7.60
2019-03-18T20:29:27.235Z,6.55
2019-03-18T20:31:56.556Z,5.80
2019-03-18T20:34:25.880Z,4.33
2019-03-18T20:36:54.766Z,4.10
2019-03-18T20:39:23.686Z,3.20
2019-03-18T20:41:52.628Z,3.10
2019-03-18T20:44:21.507Z,2.10
2019-03-18T20:46:50.408Z,2.00
2019-03-18T20:49:19.586Z,1.90
2019-03-18T20:51:48.447Z,2.40
2019-03-18T20:54:17.498Z,8.85
2019-03-18T20:56:47.139Z,18.57
2019-03-18T20:59:16.302Z,5.47
2019-03-18T21:01:45.162Z,2.80
2019-03-18T21:04:15.022Z,2.40
2019-03-18T21:06:44.043Z,2.30
2019-03-18T21:09:12.986Z,2.70
2019-03-18T21:11:42.094Z,3.22
2019-03-18T21:14:11.601Z,3.00
2019-03-18T21:16:40.826Z,3.12
2019-03-18T21:19:09.724Z,2.70
2019-03-18T21:21:39.118Z,2.45
2019-03-18T21:24:08.159Z,2.40
2019-03-18T21:26:38.008Z,2.80
2019-03-18T21:29:07.220Z,2.60
2019-03-18T21:31:36.103Z,2.20
2019-03-18T21:34:05.243Z,2.50
2019-03-18T21:36:38.093Z,3.10
2019-03-18T21:39:08.671Z,3.70
2019-03-18T21:41:38.720Z,3.20
2019-03-18T21:44:08.080Z,3.00
2019-03-18T21:46:37.453Z,3.00
2019-03-18T21:49:07.527Z,3.15
2019-03-18T21:51:37.371Z,3.10
2019-03-18T21:54:06.670Z,3.10
2019-03-18T21:56:36.276Z,3.15
2019-03-18T21:59:05.307Z,3.70
2019-03-18T22:01:34.587Z,3.13
2019-03-18T22:04:03.870Z,3.50
2019-03-18T22:06:33.681Z,3.47
2019-03-18T22:09:02.623Z,3.52
2019-03-18T22:11:32.388Z,3.70
2019-03-18T22:14:01.952Z,4.05
2019-03-18T22:16:31.020Z,3.60
2019-03-18T22:19:00.329Z,3.40
2019-03-18T22:21:29.640Z,3.90
2019-03-18T22:23:59.084Z,4.20
2019-03-18T22:26:28.281Z,3.92
2019-03-18T22:28:57.999Z,4.10
2019-03-18T22:31:27.327Z,3.65
2019-03-18T22:33:56.335Z,4.13
2019-03-18T22:36:25.359Z,4.00
2019-03-18T22:38:54.889Z,3.40
2019-03-18T22:41:24.375Z,4.00
2019-03-18T22:43:53.578Z,4.20
2019-03-18T22:46:22.915Z,3.98
2019-03-18T22:48:52.488Z,3.40
2019-03-18T22:51:21.790Z,3.83
2019-03-18T22:53:50.986Z,3.70
2019-03-18T22:56:20.255Z,4.10
2019-03-18T22:58:49.108Z,4.25
2019-03-18T23:01:22.603Z,3.83
2019-03-18T23:03:51.488Z,4.08
2019-03-18T23:06:20.375Z,3.87
2019-03-18T23:08:49.244Z,3.83
2019-03-18T23:11:19.242Z,4.00
2019-03-18T23:13:48.761Z,4.08
2019-03-18T23:16:17.714Z,4.00
2019-03-18T23:18:47.474Z,4.40
2019-03-18T23:21:16.967Z,4.37
2019-03-18T23:23:46.486Z,4.47
2019-03-18T23:26:15.746Z,4.70
2019-03-18T23:28:44.967Z,4.30
2019-03-18T23:31:14.580Z,4.20
2019-03-18T23:33:43.781Z,4.25
2019-03-18T23:36:12.918Z,4.00
2019-03-18T23:38:42.072Z,4.60
2019-03-18T23:41:11.260Z,4.40
2019-03-18T23:43:40.456Z,3.90
2019-03-18T23:46:10.063Z,4.65
2019-03-18T23:48:39.263Z,4.35
2019-03-18T23:51:08.216Z,4.55
2019-03-18T23:53:37.347Z,5.00
2019-03-18T23:56:06.650Z,4.80
2019-03-18T23:58:36.164Z,4.58
